CYEV

Inuvik Mike Zubko Airport

Inuvik, Northwest Territories, Canada
METAR CYEV 151200Z VRB02KT 15SM SCT090 SCT250 02/01 A2985 RMK AC3CI1 SLP115
Observed Flight Rules
Aug-15 @ 12:00 UTC (41 minutes ago) Visual Flight Rules
Wind Visibility Clouds
Variable at 2 knots 15 miles
  • Scattered at 9,000' AGL
  • Scattered at 25,000' AGL
Temperatures Readings
Current 2°C / 36°F
Dewpoint 1°C / 34°F
Humidity 93%
Altimeter 29.85" Hg
Pressure 1011.5 hPa
Elevation 68
METAR CYEV 151200Z VRB02KT 15SM SCT090 SCT250 02/01 A2985 RMK AC3CI1 SLP115
Observed Flight Rules
Aug-15 @ 12:00 UTC
(41 minutes ago)
VFR
Wind Visibility
Variable at 2 knots 15 miles
Clouds
  • Scattered at 9,000' AGL
  • Scattered at 25,000' AGL
Temperature Dewpoint
2°C / 36°F 1°C / 34°F
Humidity Altimeter Pressure
93% 29.85" Hg 1011.5 hPa